WMT3421 LRCL-LTAI
Flight info
| Callsign | WMT3421 |
|---|---|
| Flight time | 1h 42m |
| Altitude | 35000 |
| Route | ELROM DCT EMPOS DCT BIVBU DCT APROB DCT OTPER DCT DINEN DCT ADORU UG80 EKI UL606 CRD UL854 KOZLU |
| Aircraft | A21N/M-SDE3FGHIRWY/LB1 |
Departure
| Time | 2026-04-26 08:20 |
|---|---|
| Airport | Avram Iancu Cluj International Airport (LRCL) |
Arrival
| Time | 2026-04-26 10:02 |
|---|---|
| Airport | Antalya International Airport (LTAI) |
| Time | Latitude | Longitude | Altitude | Speed | Heading |
|---|---|---|---|---|---|
| 2026-04-26 08:07 | 46.78714 | 23.69350 | 1043 ft | 0 kts | 71° |
| 2026-04-26 08:13 | 46.78714 | 23.69349 | 1043 ft | 1 kts | 71° |
| 2026-04-26 08:14 | 46.78709 | 23.69328 | 1043 ft | 3 kts | 71° |
| 2026-04-26 08:14 | 46.78704 | 23.69305 | 1043 ft | 3 kts | 64° |
| 2026-04-26 08:14 | 46.78696 | 23.69282 | 1043 ft | 3 kts | 22° |
| 2026-04-26 08:14 | 46.78679 | 23.69276 | 1043 ft | 3 kts | 346° |
| 2026-04-26 08:15 | 46.78666 | 23.69281 | 1043 ft | 1 kts | 342° |
| 2026-04-26 08:15 | 46.78663 | 23.69282 | 1043 ft | 0 kts | 341° |
| 2026-04-26 08:17 | 46.78686 | 23.69270 | 1043 ft | 7 kts | 341° |
| 2026-04-26 08:17 | 46.78756 | 23.69236 | 1043 ft | 14 kts | 342° |
| 2026-04-26 08:17 | 46.78855 | 23.69189 | 1043 ft | 16 kts | 344° |
| 2026-04-26 08:17 | 46.78939 | 23.69269 | 1043 ft | 17 kts | 69° |
| 2026-04-26 08:18 | 46.78979 | 23.69448 | 1043 ft | 21 kts | 72° |
| 2026-04-26 08:18 | 46.78994 | 23.69581 | 1043 ft | 6 kts | 84° |
| 2026-04-26 08:18 | 46.79012 | 23.69594 | 1043 ft | 2 kts | 352° |
| 2026-04-26 08:18 | 46.79012 | 23.69573 | 1043 ft | 2 kts | 264° |
| 2026-04-26 08:19 | 46.79005 | 23.69552 | 1043 ft | 0 kts | 252° |
| 2026-04-26 08:19 | 46.78912 | 23.69139 | 1043 ft | 86 kts | 251° |
| 2026-04-26 08:19 | 46.78651 | 23.67994 | 1054 ft | 151 kts | 254° |
| 2026-04-26 08:20 | 46.78313 | 23.66456 | 1683 ft | 164 kts | 257° |
| 2026-04-26 08:20 | 46.77988 | 23.64806 | 2571 ft | 173 kts | 260° |
| 2026-04-26 08:20 | 46.77676 | 23.63058 | 3417 ft | 183 kts | 262° |
| 2026-04-26 08:20 | 46.77371 | 23.61233 | 4269 ft | 188 kts | 261° |
| 2026-04-26 08:21 | 46.76951 | 23.59338 | 4861 ft | 205 kts | 255° |
| 2026-04-26 08:21 | 46.76406 | 23.57311 | 5310 ft | 225 kts | 253° |
| 2026-04-26 08:21 | 46.75844 | 23.55088 | 5853 ft | 240 kts | 258° |
| 2026-04-26 08:21 | 46.75529 | 23.52667 | 6643 ft | 244 kts | 269° |
| 2026-04-26 08:22 | 46.75458 | 23.50209 | 7636 ft | 244 kts | 271° |
| 2026-04-26 08:22 | 46.75399 | 23.47722 | 8587 ft | 244 kts | 271° |
| 2026-04-26 08:22 | 46.75332 | 23.45262 | 9667 ft | 244 kts | 271° |
| 2026-04-26 08:22 | 46.75264 | 23.42761 | 10389 ft | 254 kts | 271° |
| 2026-04-26 08:23 | 46.75196 | 23.40074 | 10723 ft | 277 kts | 271° |
| 2026-04-26 08:23 | 46.75122 | 23.37169 | 11144 ft | 294 kts | 271° |
| 2026-04-26 08:23 | 46.75041 | 23.34171 | 11933 ft | 297 kts | 271° |
| 2026-04-26 08:23 | 46.74957 | 23.31153 | 12818 ft | 299 kts | 271° |
| 2026-04-26 08:24 | 46.74871 | 23.28107 | 13655 ft | 302 kts | 271° |
| 2026-04-26 08:24 | 46.74787 | 23.25032 | 14328 ft | 306 kts | 272° |
| 2026-04-26 08:24 | 46.74701 | 23.21912 | 14975 ft | 310 kts | 272° |
| 2026-04-26 08:24 | 46.74429 | 23.18766 | 15622 ft | 320 kts | 261° |
| 2026-04-26 08:25 | 46.73550 | 23.15758 | 16258 ft | 335 kts | 245° |
| 2026-04-26 08:25 | 46.72019 | 23.13065 | 16786 ft | 358 kts | 229° |
| 2026-04-26 08:25 | 46.69862 | 23.11083 | 17438 ft | 379 kts | 211° |
| 2026-04-26 08:25 | 46.67238 | 23.10111 | 18028 ft | 400 kts | 191° |
| 2026-04-26 08:26 | 46.64406 | 23.10346 | 18562 ft | 419 kts | 173° |
| 2026-04-26 08:26 | 46.61618 | 23.11788 | 19104 ft | 432 kts | 157° |
| 2026-04-26 08:26 | 46.58969 | 23.13912 | 19698 ft | 436 kts | 152° |
| 2026-04-26 08:26 | 46.56354 | 23.16153 | 20347 ft | 437 kts | 153° |
| 2026-04-26 08:27 | 46.53699 | 23.18340 | 20945 ft | 439 kts | 154° |
| 2026-04-26 08:27 | 46.51000 | 23.20452 | 21498 ft | 443 kts | 155° |
| 2026-04-26 08:27 | 46.48258 | 23.22523 | 22049 ft | 445 kts | 156° |
| 2026-04-26 08:27 | 46.45491 | 23.24577 | 22570 ft | 448 kts | 156° |
| 2026-04-26 08:28 | 46.42706 | 23.26629 | 23112 ft | 450 kts | 156° |
| 2026-04-26 08:28 | 46.39902 | 23.28688 | 23618 ft | 453 kts | 156° |
| 2026-04-26 08:28 | 46.37086 | 23.30756 | 24065 ft | 455 kts | 156° |
| 2026-04-26 08:28 | 46.34254 | 23.32837 | 24547 ft | 457 kts | 155° |
| 2026-04-26 08:29 | 46.31412 | 23.34926 | 24990 ft | 459 kts | 155° |
| 2026-04-26 08:29 | 46.28598 | 23.36994 | 25403 ft | 461 kts | 155° |
| 2026-04-26 08:29 | 46.25727 | 23.39100 | 25795 ft | 464 kts | 155° |
| 2026-04-26 08:29 | 46.22841 | 23.41217 | 26157 ft | 467 kts | 155° |
| 2026-04-26 08:30 | 46.19945 | 23.43337 | 26586 ft | 467 kts | 155° |
| 2026-04-26 08:30 | 46.17036 | 23.45465 | 26965 ft | 470 kts | 155° |
| 2026-04-26 08:30 | 46.14121 | 23.47595 | 27342 ft | 472 kts | 155° |
| 2026-04-26 08:30 | 46.11175 | 23.49746 | 27721 ft | 474 kts | 155° |
| 2026-04-26 08:31 | 46.08224 | 23.51898 | 28093 ft | 476 kts | 155° |
| 2026-04-26 08:31 | 46.05261 | 23.54055 | 28427 ft | 479 kts | 155° |
| 2026-04-26 08:31 | 46.02282 | 23.56222 | 28748 ft | 481 kts | 155° |
| 2026-04-26 08:31 | 45.99292 | 23.58394 | 29079 ft | 483 kts | 155° |
| 2026-04-26 08:32 | 45.96283 | 23.60576 | 29399 ft | 485 kts | 155° |
| 2026-04-26 08:32 | 45.93267 | 23.62763 | 29718 ft | 487 kts | 155° |
| 2026-04-26 08:32 | 45.90237 | 23.64956 | 30021 ft | 489 kts | 155° |
| 2026-04-26 08:32 | 45.87193 | 23.67155 | 30298 ft | 490 kts | 155° |
| 2026-04-26 08:33 | 45.84144 | 23.69356 | 30582 ft | 492 kts | 155° |
| 2026-04-26 08:33 | 45.81081 | 23.71565 | 30873 ft | 493 kts | 155° |
| 2026-04-26 08:33 | 45.78049 | 23.73748 | 31164 ft | 494 kts | 155° |
| 2026-04-26 08:33 | 45.74967 | 23.75926 | 31540 ft | 493 kts | 155° |
| 2026-04-26 08:34 | 45.71889 | 23.78077 | 31903 ft | 492 kts | 155° |
| 2026-04-26 08:34 | 45.68811 | 23.80222 | 32269 ft | 492 kts | 155° |
| 2026-04-26 08:34 | 45.65739 | 23.82365 | 32603 ft | 491 kts | 155° |
| 2026-04-26 08:34 | 45.62668 | 23.84507 | 32929 ft | 490 kts | 155° |
| 2026-04-26 08:35 | 45.59605 | 23.86644 | 33251 ft | 490 kts | 155° |
| 2026-04-26 08:35 | 45.56546 | 23.88777 | 33573 ft | 489 kts | 155° |
| 2026-04-26 08:35 | 45.53490 | 23.90905 | 33881 ft | 488 kts | 155° |
| 2026-04-26 08:35 | 45.50439 | 23.93027 | 34166 ft | 487 kts | 155° |
| 2026-04-26 08:36 | 45.47397 | 23.95142 | 34449 ft | 485 kts | 155° |
| 2026-04-26 08:36 | 45.44365 | 23.97248 | 34704 ft | 485 kts | 155° |
| 2026-04-26 08:36 | 45.41337 | 23.99347 | 34939 ft | 484 kts | 155° |
| 2026-04-26 08:36 | 45.38316 | 24.01437 | 34925 ft | 481 kts | 155° |
| 2026-04-26 08:37 | 45.32326 | 24.05575 | 34922 ft | 477 kts | 155° |
| 2026-04-26 08:37 | 45.26429 | 24.09642 | 34936 ft | 473 kts | 155° |
| 2026-04-26 08:38 | 45.20505 | 24.13717 | 34931 ft | 472 kts | 155° |
| 2026-04-26 08:38 | 45.14600 | 24.17772 | 34932 ft | 471 kts | 155° |
| 2026-04-26 08:39 | 45.08706 | 24.21810 | 34927 ft | 471 kts | 155° |
| 2026-04-26 08:39 | 45.02809 | 24.25841 | 34921 ft | 470 kts | 155° |
| 2026-04-26 08:40 | 44.96912 | 24.29862 | 34913 ft | 470 kts | 155° |
| 2026-04-26 08:40 | 44.91019 | 24.33875 | 34925 ft | 471 kts | 155° |
| 2026-04-26 08:41 | 44.85180 | 24.38065 | 34923 ft | 471 kts | 154° |
| 2026-04-26 08:41 | 44.79392 | 24.42268 | 34927 ft | 471 kts | 154° |
| 2026-04-26 08:42 | 44.73547 | 24.46472 | 34930 ft | 472 kts | 154° |
| 2026-04-26 08:42 | 44.67700 | 24.50657 | 34934 ft | 472 kts | 155° |
| 2026-04-26 08:43 | 44.61848 | 24.54835 | 34942 ft | 472 kts | 155° |
| 2026-04-26 08:43 | 44.55992 | 24.59005 | 34942 ft | 472 kts | 155° |
| 2026-04-26 08:44 | 44.50135 | 24.63166 | 34950 ft | 472 kts | 155° |
| 2026-04-26 08:44 | 44.44278 | 24.67317 | 34950 ft | 472 kts | 156° |
| 2026-04-26 08:45 | 44.38418 | 24.71462 | 34952 ft | 472 kts | 156° |
| 2026-04-26 08:45 | 44.32559 | 24.75596 | 34949 ft | 472 kts | 156° |
| 2026-04-26 08:46 | 44.26743 | 24.79691 | 34953 ft | 471 kts | 156° |
| 2026-04-26 08:46 | 44.20887 | 24.83804 | 34954 ft | 471 kts | 156° |
| 2026-04-26 08:47 | 44.15034 | 24.87906 | 34946 ft | 471 kts | 157° |
| 2026-04-26 08:47 | 44.09182 | 24.91999 | 34947 ft | 471 kts | 157° |
| 2026-04-26 08:48 | 44.03326 | 24.96085 | 34946 ft | 471 kts | 157° |
| 2026-04-26 08:48 | 43.97461 | 25.00120 | 34943 ft | 470 kts | 159° |
| 2026-04-26 08:49 | 43.91458 | 25.03640 | 34945 ft | 468 kts | 161° |
| 2026-04-26 08:49 | 43.86450 | 25.06512 | 34944 ft | 468 kts | 161° |
| 2026-04-26 08:50 | 43.80424 | 25.09972 | 34950 ft | 469 kts | 161° |
| 2026-04-26 08:50 | 43.74396 | 25.13424 | 34952 ft | 469 kts | 161° |
| 2026-04-26 08:51 | 43.65338 | 25.18595 | 34958 ft | 470 kts | 161° |
| 2026-04-26 08:52 | 43.59288 | 25.22039 | 34967 ft | 470 kts | 161° |
| 2026-04-26 08:52 | 43.53237 | 25.25477 | 34969 ft | 471 kts | 161° |
| 2026-04-26 08:53 | 43.47175 | 25.28914 | 34979 ft | 471 kts | 161° |
| 2026-04-26 08:53 | 43.41149 | 25.32322 | 34984 ft | 471 kts | 161° |
| 2026-04-26 08:54 | 43.35082 | 25.35748 | 34988 ft | 471 kts | 161° |
| 2026-04-26 08:54 | 43.29014 | 25.39165 | 34989 ft | 471 kts | 161° |
| 2026-04-26 08:55 | 43.22952 | 25.42572 | 34984 ft | 471 kts | 161° |
| 2026-04-26 08:55 | 43.16890 | 25.45972 | 34974 ft | 470 kts | 161° |
| 2026-04-26 08:56 | 43.10836 | 25.49361 | 34976 ft | 470 kts | 161° |
| 2026-04-26 08:56 | 43.04851 | 25.52970 | 34973 ft | 472 kts | 156° |
| 2026-04-26 08:57 | 42.99148 | 25.57441 | 34971 ft | 474 kts | 150° |
| 2026-04-26 08:57 | 42.93574 | 25.62237 | 34968 ft | 473 kts | 151° |
| 2026-04-26 08:58 | 42.87992 | 25.66993 | 34970 ft | 473 kts | 151° |
| 2026-04-26 08:58 | 42.82444 | 25.71718 | 34978 ft | 473 kts | 150° |
| 2026-04-26 08:59 | 42.76859 | 25.76471 | 34979 ft | 474 kts | 150° |
| 2026-04-26 08:59 | 42.71271 | 25.81217 | 34979 ft | 474 kts | 150° |
| 2026-04-26 09:00 | 42.65678 | 25.85956 | 34975 ft | 474 kts | 150° |
| 2026-04-26 09:00 | 42.60080 | 25.90690 | 34977 ft | 474 kts | 150° |
| 2026-04-26 09:01 | 42.54475 | 25.95420 | 34984 ft | 475 kts | 150° |
| 2026-04-26 09:01 | 42.48870 | 26.00149 | 34977 ft | 475 kts | 149° |
| 2026-04-26 09:02 | 42.43400 | 26.05199 | 34978 ft | 476 kts | 147° |
| 2026-04-26 09:02 | 42.37964 | 26.10314 | 34985 ft | 476 kts | 147° |
| 2026-04-26 09:03 | 42.32498 | 26.15383 | 34985 ft | 476 kts | 147° |
| 2026-04-26 09:03 | 42.27061 | 26.20393 | 34992 ft | 476 kts | 147° |
| 2026-04-26 09:04 | 42.21588 | 26.25423 | 34994 ft | 476 kts | 147° |
| 2026-04-26 09:04 | 42.16109 | 26.30449 | 34995 ft | 476 kts | 147° |
| 2026-04-26 09:05 | 42.10835 | 26.35276 | 34997 ft | 476 kts | 147° |
| 2026-04-26 09:05 | 42.05360 | 26.40278 | 34996 ft | 475 kts | 147° |
| 2026-04-26 09:06 | 41.99890 | 26.45265 | 34999 ft | 475 kts | 147° |
| 2026-04-26 09:06 | 41.94419 | 26.50240 | 34996 ft | 475 kts | 147° |
| 2026-04-26 09:07 | 41.88952 | 26.55204 | 34999 ft | 474 kts | 147° |
| 2026-04-26 09:07 | 41.83443 | 26.60044 | 34997 ft | 473 kts | 149° |
| 2026-04-26 09:08 | 41.77926 | 26.64754 | 34995 ft | 473 kts | 148° |
| 2026-04-26 09:08 | 41.72388 | 26.69511 | 34997 ft | 473 kts | 148° |
| 2026-04-26 09:09 | 41.66859 | 26.74269 | 34999 ft | 472 kts | 148° |
| 2026-04-26 09:09 | 41.61331 | 26.79018 | 35002 ft | 472 kts | 148° |
| 2026-04-26 09:10 | 41.55806 | 26.83752 | 35005 ft | 472 kts | 148° |
| 2026-04-26 09:10 | 41.50281 | 26.88474 | 35005 ft | 472 kts | 148° |
| 2026-04-26 09:11 | 41.44754 | 26.93188 | 35008 ft | 471 kts | 148° |
| 2026-04-26 09:11 | 41.39233 | 26.97886 | 35006 ft | 471 kts | 148° |
| 2026-04-26 09:12 | 41.33708 | 27.02578 | 35010 ft | 471 kts | 148° |
| 2026-04-26 09:12 | 41.28190 | 27.07256 | 35008 ft | 470 kts | 148° |
| 2026-04-26 09:13 | 41.22708 | 27.11893 | 35006 ft | 470 kts | 147° |
| 2026-04-26 09:13 | 41.17188 | 27.16552 | 35012 ft | 470 kts | 147° |
| 2026-04-26 09:14 | 41.11679 | 27.21195 | 35018 ft | 469 kts | 147° |
| 2026-04-26 09:14 | 41.06168 | 27.25829 | 35015 ft | 469 kts | 147° |
| 2026-04-26 09:15 | 41.00665 | 27.30447 | 35017 ft | 468 kts | 147° |
| 2026-04-26 09:15 | 40.95159 | 27.35058 | 35021 ft | 468 kts | 147° |
| 2026-04-26 09:16 | 40.89657 | 27.39657 | 35023 ft | 468 kts | 147° |
| 2026-04-26 09:16 | 40.84159 | 27.44243 | 35021 ft | 467 kts | 147° |
| 2026-04-26 09:17 | 40.78701 | 27.48787 | 35019 ft | 467 kts | 147° |
| 2026-04-26 09:17 | 40.73210 | 27.53349 | 35022 ft | 466 kts | 147° |
| 2026-04-26 09:18 | 40.67726 | 27.57895 | 35020 ft | 466 kts | 147° |
| 2026-04-26 09:18 | 40.62242 | 27.62434 | 35022 ft | 466 kts | 147° |
| 2026-04-26 09:19 | 40.56755 | 27.66965 | 35026 ft | 466 kts | 147° |
| 2026-04-26 09:19 | 40.51269 | 27.71489 | 35025 ft | 465 kts | 147° |
| 2026-04-26 09:20 | 40.45778 | 27.76007 | 35028 ft | 466 kts | 147° |
| 2026-04-26 09:20 | 40.40285 | 27.80517 | 35034 ft | 466 kts | 147° |
| 2026-04-26 09:21 | 40.34788 | 27.85022 | 35036 ft | 466 kts | 147° |
| 2026-04-26 09:21 | 40.29293 | 27.89515 | 35036 ft | 465 kts | 147° |
| 2026-04-26 09:22 | 40.23801 | 27.93998 | 35037 ft | 465 kts | 147° |
| 2026-04-26 09:22 | 40.18311 | 27.98472 | 35036 ft | 465 kts | 147° |
| 2026-04-26 09:23 | 40.12826 | 28.02933 | 35033 ft | 464 kts | 147° |
| 2026-04-26 09:23 | 40.07378 | 28.07354 | 35031 ft | 464 kts | 146° |
| 2026-04-26 09:24 | 40.04725 | 28.09505 | 35034 ft | 464 kts | 146° |
| 2026-04-26 09:24 | 39.99245 | 28.13941 | 35033 ft | 463 kts | 146° |
| 2026-04-26 09:25 | 39.93769 | 28.18365 | 35035 ft | 463 kts | 146° |
| 2026-04-26 09:25 | 39.88291 | 28.22781 | 35035 ft | 463 kts | 146° |
| 2026-04-26 09:26 | 39.82822 | 28.27183 | 35033 ft | 462 kts | 146° |
| 2026-04-26 09:26 | 39.77354 | 28.31574 | 35027 ft | 462 kts | 146° |
| 2026-04-26 09:27 | 39.71888 | 28.35956 | 35030 ft | 461 kts | 146° |
| 2026-04-26 09:27 | 39.66422 | 28.40331 | 35029 ft | 461 kts | 146° |
| 2026-04-26 09:28 | 39.60999 | 28.44661 | 35031 ft | 461 kts | 146° |
| 2026-04-26 09:28 | 39.55539 | 28.49014 | 35025 ft | 460 kts | 146° |
| 2026-04-26 09:29 | 39.50090 | 28.53350 | 35024 ft | 460 kts | 146° |
| 2026-04-26 09:29 | 39.44636 | 28.57682 | 35025 ft | 460 kts | 146° |
| 2026-04-26 09:30 | 39.39184 | 28.62003 | 35023 ft | 460 kts | 146° |
| 2026-04-26 09:30 | 39.33734 | 28.66316 | 35022 ft | 459 kts | 146° |
| 2026-04-26 09:31 | 39.28284 | 28.70620 | 35028 ft | 459 kts | 146° |
| 2026-04-26 09:31 | 39.22840 | 28.74912 | 35029 ft | 459 kts | 146° |
| 2026-04-26 09:32 | 39.17391 | 28.79201 | 35024 ft | 459 kts | 146° |
| 2026-04-26 09:32 | 39.11979 | 28.83450 | 35019 ft | 459 kts | 146° |
| 2026-04-26 09:33 | 39.06532 | 28.87721 | 35017 ft | 458 kts | 146° |
| 2026-04-26 09:33 | 39.01083 | 28.91984 | 35023 ft | 458 kts | 146° |
| 2026-04-26 09:34 | 38.95639 | 28.96238 | 35024 ft | 458 kts | 146° |
| 2026-04-26 09:34 | 38.90195 | 29.00484 | 35021 ft | 458 kts | 146° |
| 2026-04-26 09:35 | 38.84753 | 29.04719 | 35023 ft | 457 kts | 146° |
| 2026-04-26 09:35 | 38.79309 | 29.08949 | 35017 ft | 457 kts | 146° |
| 2026-04-26 09:36 | 38.73871 | 29.13166 | 35022 ft | 457 kts | 146° |
| 2026-04-26 09:36 | 38.68428 | 29.17380 | 35024 ft | 457 kts | 146° |
| 2026-04-26 09:37 | 38.62980 | 29.21588 | 35031 ft | 457 kts | 147° |
| 2026-04-26 09:37 | 38.57535 | 29.25786 | 35032 ft | 457 kts | 147° |
| 2026-04-26 09:38 | 38.52091 | 29.29979 | 35032 ft | 457 kts | 147° |
| 2026-04-26 09:38 | 38.46650 | 29.34162 | 35029 ft | 456 kts | 147° |
| 2026-04-26 09:39 | 38.41216 | 29.38331 | 35026 ft | 456 kts | 147° |
| 2026-04-26 09:39 | 38.35823 | 29.42462 | 35028 ft | 455 kts | 147° |
| 2026-04-26 09:40 | 38.30402 | 29.46607 | 35027 ft | 454 kts | 147° |
| 2026-04-26 09:40 | 38.24981 | 29.50745 | 35029 ft | 454 kts | 147° |
| 2026-04-26 09:41 | 38.19568 | 29.54870 | 35029 ft | 453 kts | 147° |
| 2026-04-26 09:41 | 38.14158 | 29.58984 | 35028 ft | 453 kts | 147° |
| 2026-04-26 09:42 | 38.08870 | 29.62995 | 34859 ft | 431 kts | 147° |
| 2026-04-26 09:42 | 38.06315 | 29.64931 | 34457 ft | 425 kts | 147° |
| 2026-04-26 09:42 | 38.03781 | 29.66851 | 34040 ft | 424 kts | 147° |
| 2026-04-26 09:42 | 38.01240 | 29.68775 | 33557 ft | 427 kts | 147° |
| 2026-04-26 09:43 | 37.98683 | 29.70711 | 33065 ft | 429 kts | 147° |
| 2026-04-26 09:43 | 37.96119 | 29.72648 | 32593 ft | 429 kts | 147° |
| 2026-04-26 09:43 | 37.93561 | 29.74579 | 32130 ft | 428 kts | 147° |
| 2026-04-26 09:43 | 37.91001 | 29.76509 | 31667 ft | 428 kts | 147° |
| 2026-04-26 09:44 | 37.88440 | 29.78438 | 31214 ft | 429 kts | 147° |
| 2026-04-26 09:44 | 37.85876 | 29.80369 | 30769 ft | 429 kts | 147° |
| 2026-04-26 09:44 | 37.83314 | 29.82295 | 30333 ft | 427 kts | 147° |
| 2026-04-26 09:44 | 37.80775 | 29.84204 | 29866 ft | 422 kts | 147° |
| 2026-04-26 09:45 | 37.78302 | 29.86062 | 29359 ft | 417 kts | 147° |
| 2026-04-26 09:45 | 37.75820 | 29.87927 | 28861 ft | 413 kts | 147° |
| 2026-04-26 09:45 | 37.73360 | 29.89774 | 28368 ft | 410 kts | 147° |
| 2026-04-26 09:45 | 37.70916 | 29.91608 | 27885 ft | 407 kts | 147° |
| 2026-04-26 09:46 | 37.68495 | 29.93424 | 27406 ft | 403 kts | 147° |
| 2026-04-26 09:46 | 37.66091 | 29.95226 | 26942 ft | 400 kts | 147° |
| 2026-04-26 09:46 | 37.63852 | 29.97258 | 26481 ft | 394 kts | 134° |
| 2026-04-26 09:46 | 37.62176 | 29.99959 | 25932 ft | 391 kts | 118° |
| 2026-04-26 09:47 | 37.60938 | 30.02980 | 25308 ft | 384 kts | 115° |
| 2026-04-26 09:47 | 37.60161 | 30.04963 | 24907 ft | 378 kts | 115° |
| 2026-04-26 09:47 | 37.59015 | 30.07909 | 24316 ft | 371 kts | 115° |
| 2026-04-26 09:47 | 37.57899 | 30.10804 | 23730 ft | 363 kts | 115° |
| 2026-04-26 09:48 | 37.56810 | 30.13642 | 23062 ft | 357 kts | 115° |
| 2026-04-26 09:48 | 37.55744 | 30.16437 | 22389 ft | 351 kts | 115° |
| 2026-04-26 09:48 | 37.54698 | 30.19188 | 21727 ft | 345 kts | 115° |
| 2026-04-26 09:48 | 37.53672 | 30.21898 | 21085 ft | 340 kts | 115° |
| 2026-04-26 09:49 | 37.52664 | 30.24573 | 20483 ft | 336 kts | 115° |
| 2026-04-26 09:49 | 37.51666 | 30.27234 | 19916 ft | 337 kts | 115° |
| 2026-04-26 09:49 | 37.50669 | 30.29902 | 19357 ft | 337 kts | 115° |
| 2026-04-26 09:49 | 37.49673 | 30.32576 | 18808 ft | 337 kts | 115° |
| 2026-04-26 09:50 | 37.48679 | 30.35255 | 18214 ft | 338 kts | 115° |
| 2026-04-26 09:50 | 37.47684 | 30.37941 | 17542 ft | 339 kts | 115° |
| 2026-04-26 09:50 | 37.46691 | 30.40632 | 16898 ft | 340 kts | 115° |
| 2026-04-26 09:50 | 37.45694 | 30.43340 | 16254 ft | 341 kts | 115° |
| 2026-04-26 09:51 | 37.44697 | 30.46058 | 15631 ft | 342 kts | 115° |
| 2026-04-26 09:51 | 37.43705 | 30.48785 | 15018 ft | 343 kts | 115° |
| 2026-04-26 09:51 | 37.42714 | 30.51521 | 14405 ft | 343 kts | 115° |
| 2026-04-26 09:51 | 37.41743 | 30.54219 | 13816 ft | 344 kts | 115° |
| 2026-04-26 09:52 | 37.40764 | 30.56962 | 13165 ft | 343 kts | 115° |
| 2026-04-26 09:52 | 37.38826 | 30.62398 | 11859 ft | 334 kts | 115° |
| 2026-04-26 09:52 | 37.37884 | 30.65035 | 11247 ft | 328 kts | 115° |
| 2026-04-26 09:53 | 37.36953 | 30.67629 | 10620 ft | 322 kts | 115° |
| 2026-04-26 09:53 | 37.36044 | 30.70168 | 10026 ft | 315 kts | 115° |
| 2026-04-26 09:53 | 37.35148 | 30.72656 | 9394 ft | 311 kts | 115° |
| 2026-04-26 09:53 | 37.34265 | 30.75110 | 8796 ft | 304 kts | 115° |
| 2026-04-26 09:54 | 37.33407 | 30.77492 | 8318 ft | 294 kts | 117° |
| 2026-04-26 09:54 | 37.32231 | 30.79509 | 7894 ft | 284 kts | 141° |
| 2026-04-26 09:54 | 37.30558 | 30.80746 | 7445 ft | 277 kts | 155° |
| 2026-04-26 09:54 | 37.28822 | 30.81751 | 6982 ft | 273 kts | 155° |
| 2026-04-26 09:55 | 37.27106 | 30.82742 | 6474 ft | 270 kts | 156° |
| 2026-04-26 09:55 | 37.25421 | 30.83717 | 6048 ft | 263 kts | 156° |
| 2026-04-26 09:55 | 37.23682 | 30.84100 | 5652 ft | 252 kts | 184° |
| 2026-04-26 09:55 | 37.21977 | 30.83798 | 5274 ft | 242 kts | 189° |
| 2026-04-26 09:56 | 37.20349 | 30.83481 | 5020 ft | 229 kts | 187° |
| 2026-04-26 09:56 | 37.18829 | 30.83239 | 5020 ft | 211 kts | 186° |
| 2026-04-26 09:56 | 37.17375 | 30.83037 | 5035 ft | 209 kts | 185° |
| 2026-04-26 09:56 | 37.15946 | 30.82850 | 4901 ft | 210 kts | 186° |
| 2026-04-26 09:57 | 37.14479 | 30.82635 | 4596 ft | 212 kts | 185° |
| 2026-04-26 09:57 | 37.13030 | 30.82438 | 4313 ft | 207 kts | 185° |
| 2026-04-26 09:57 | 37.11632 | 30.82243 | 4019 ft | 198 kts | 186° |
| 2026-04-26 09:57 | 37.10250 | 30.82051 | 3800 ft | 206 kts | 185° |
| 2026-04-26 09:58 | 37.08811 | 30.81852 | 3518 ft | 206 kts | 185° |
| 2026-04-26 09:58 | 37.07393 | 30.81659 | 3255 ft | 205 kts | 185° |
| 2026-04-26 09:58 | 37.05986 | 30.81462 | 2967 ft | 202 kts | 185° |
| 2026-04-26 09:58 | 37.04592 | 30.81268 | 2715 ft | 201 kts | 185° |
| 2026-04-26 09:59 | 37.03212 | 30.81084 | 2446 ft | 198 kts | 186° |
| 2026-04-26 09:59 | 37.01880 | 30.80890 | 2168 ft | 188 kts | 186° |
| 2026-04-26 09:59 | 37.00607 | 30.80681 | 1966 ft | 179 kts | 188° |
| 2026-04-26 09:59 | 36.99422 | 30.80509 | 1722 ft | 168 kts | 185° |
| 2026-04-26 10:00 | 36.98278 | 30.80400 | 1491 ft | 162 kts | 185° |
| 2026-04-26 10:00 | 36.97209 | 30.80262 | 1346 ft | 149 kts | 186° |
| 2026-04-26 10:00 | 36.96204 | 30.80114 | 1069 ft | 142 kts | 187° |
| 2026-04-26 10:00 | 36.95247 | 30.79979 | 876 ft | 138 kts | 185° |
| 2026-04-26 10:01 | 36.94282 | 30.79855 | 702 ft | 141 kts | 185° |
| 2026-04-26 10:01 | 36.93298 | 30.79711 | 543 ft | 143 kts | 184° |
| 2026-04-26 10:01 | 36.92288 | 30.79578 | 376 ft | 145 kts | 182° |
| 2026-04-26 10:01 | 36.91308 | 30.79445 | 213 ft | 140 kts | 184° |
| 2026-04-26 10:02 | 36.90456 | 30.79331 | 197 ft | 91 kts | 187° |
| 2026-04-26 10:02 | 36.89996 | 30.79266 | 200 ft | 60 kts | 186° |
| 2026-04-26 10:02 | 36.89712 | 30.79231 | 193 ft | 31 kts | 185° |
| 2026-04-26 10:02 | 36.89563 | 30.79246 | 188 ft | 22 kts | 155° |
| 2026-04-26 10:03 | 36.89441 | 30.79315 | 193 ft | 6 kts | 157° |
| 2026-04-26 10:03 | 36.89435 | 30.79318 | 192 ft | 0 kts | 156° |
| 2026-04-26 10:04 | 36.89414 | 30.79329 | 195 ft | 7 kts | 156° |
| 2026-04-26 10:05 | 36.89394 | 30.79392 | 195 ft | 10 kts | 62° |
| 2026-04-26 10:05 | 36.89451 | 30.79418 | 200 ft | 8 kts | 2° |
| 2026-04-26 10:05 | 36.89520 | 30.79421 | 192 ft | 12 kts | 5° |
| 2026-04-26 10:05 | 36.89614 | 30.79434 | 195 ft | 13 kts | 6° |
| 2026-04-26 10:06 | 36.89644 | 30.79438 | 197 ft | 2 kts | 6° |
| 2026-04-26 10:06 | 36.89663 | 30.79469 | 194 ft | 8 kts | 70° |
| 2026-04-26 10:06 | 36.89657 | 30.79562 | 190 ft | 13 kts | 97° |
| 2026-04-26 10:06 | 36.89644 | 30.79654 | 193 ft | 8 kts | 119° |
| 2026-04-26 10:07 | 36.89588 | 30.79664 | 190 ft | 5 kts | 186° |
| 2026-04-26 10:07 | 36.89576 | 30.79663 | 194 ft | 0 kts | 186° |